Time;durP1;ratioP1;P1;durP2;ratioP2;P2;SDS_P1;SDS_P2;PMS_P1;PMS_P2;Temp;Humidity;BMP_temperature;BMP_pressure;BME280_temperature;BME280_humidity;BME280_pressure;Samples;Min_cycle;Max_cycle;Signal;HPM_P1;HPM_P2
2022/07/21 00:01:55;;;;;;;7.95;6.18;;;;;;;27.00;32.07;99180.09;5125376;28;20316;-69
2022/07/21 00:04:24;;;;;;;7.85;6.50;;;;;;;26.93;32.30;99171.03;5125221;28;20051;-69
2022/07/21 00:06:52;;;;;;;8.18;5.40;;;;;;;26.78;32.33;99159.38;5125887;28;20055;-69
2022/07/21 00:09:19;;;;;;;6.30;3.67;;;;;;;26.96;32.21;99172.53;5125671;28;20051;-68
2022/07/21 00:11:47;;;;;;;5.28;3.70;;;;;;;26.90;32.44;99187.72;5107266;28;20044;-69
2022/07/21 00:14:14;;;;;;;6.10;3.58;;;;;;;26.86;32.40;99178.28;5125335;28;20242;-69
2022/07/21 00:16:42;;;;;;;3.97;2.85;;;;;;;26.70;32.85;99157.63;5125495;28;20051;-68
2022/07/21 00:19:10;;;;;;;4.55;2.90;;;;;;;26.73;33.07;99176.25;5125433;28;20063;-68
2022/07/21 00:21:39;;;;;;;3.67;2.53;;;;;;;26.76;32.89;99167.72;5125313;28;20055;-69
2022/07/21 00:24:07;;;;;;;4.50;2.45;;;;;;;26.69;32.92;99163.25;5125523;28;20059;-68
2022/07/21 00:26:34;;;;;;;6.53;3.35;;;;;;;26.65;32.91;99164.66;5125978;28;20315;-69
2022/07/21 00:29:01;;;;;;;8.68;5.30;;;;;;;26.63;32.73;99161.31;5129357;28;20316;-68
2022/07/21 00:31:28;;;;;;;9.15;7.82;;;;;;;26.56;32.98;99174.78;5129013;28;20051;-68
2022/07/21 00:33:56;;;;;;;13.68;9.32;;;;;;;26.41;32.93;99144.94;5129298;28;20193;-68
2022/07/21 00:36:23;;;;;;;8.70;7.80;;;;;;;26.10;33.07;99120.72;5128750;28;20052;-69
2022/07/21 00:38:52;;;;;;;8.05;5.35;;;;;;;26.54;33.08;99180.41;5128982;28;20051;-69
2022/07/21 00:41:19;;;;;;;5.95;4.40;;;;;;;26.53;32.95;99183.31;5129239;28;20043;-69
2022/07/21 00:43:46;;;;;;;5.55;4.53;;;;;;;26.38;32.95;99145.31;5128756;28;20063;-69
2022/07/21 00:46:13;;;;;;;9.70;3.78;;;;;;;26.50;33.14;99172.84;5128854;28;20100;-69
2022/07/21 00:48:41;;;;;;;4.22;2.95;;;;;;;26.48;33.14;99170.31;5129176;28;20063;-69
2022/07/21 00:51:08;;;;;;;4.88;2.47;;;;;;;26.42;32.97;99167.50;5128991;28;20097;-69
2022/07/21 00:53:35;;;;;;;5.53;3.05;;;;;;;26.35;33.25;99174.72;5129026;28;20103;-69
2022/07/21 00:56:04;;;;;;;4.35;2.38;;;;;;;26.39;33.25;99166.00;5128882;28;20055;-68
2022/07/21 00:58:32;;;;;;;5.47;3.22;;;;;;;26.36;33.52;99170.97;5128595;28;20051;-69
2022/07/21 01:00:59;;;;;;;4.35;2.50;;;;;;;26.34;33.26;99165.75;5128719;28;20073;-69
2022/07/21 01:03:26;;;;;;;7.47;3.40;;;;;;;26.33;33.39;99161.34;5128418;28;20052;-68
2022/07/21 01:05:54;;;;;;;6.57;3.05;;;;;;;26.28;33.58;99166.50;5128318;28;20104;-69
2022/07/21 01:08:21;;;;;;;4.82;3.35;;;;;;;26.23;33.72;99160.78;5128708;28;20114;-69
2022/07/21 01:10:48;;;;;;;6.30;3.20;;;;;;;26.32;33.49;99162.38;5128529;28;20226;-69
2022/07/21 01:13:17;;;;;;;4.47;2.90;;;;;;;26.29;34.23;99156.47;5110417;28;20063;-68
2022/07/21 01:15:44;;;;;;;6.22;3.65;;;;;;;26.12;33.80;99134.13;5128278;28;20055;-68
2022/07/21 01:18:12;;;;;;;5.65;3.20;;;;;;;26.03;34.03;99137.97;5128520;28;20047;-70
2022/07/21 01:20:45;;;;;;;5.45;3.08;;;;;;;26.09;34.30;99150.78;5128100;28;20113;-69
2022/07/21 01:23:14;;;;;;;9.43;5.47;;;;;;;26.18;34.40;99174.09;5128537;28;20055;-69
2022/07/21 01:25:41;;;;;;;7.03;5.20;;;;;;;26.12;34.61;99174.84;5128336;28;20104;-69
2022/07/21 01:28:08;;;;;;;10.73;7.97;;;;;;;26.11;34.42;99174.00;5127354;28;20055;-69
2022/07/21 01:30:35;;;;;;;10.05;7.15;;;;;;;26.07;34.50;99172.72;5127814;28;20059;-69
2022/07/21 01:33:03;;;;;;;11.77;8.02;;;;;;;26.08;34.39;99173.53;5128023;28;20081;-69
2022/07/21 01:35:33;;;;;;;7.07;5.88;;;;;;;25.66;34.64;99118.00;5127876;28;20101;-70
2022/07/21 01:38:01;;;;;;;8.25;5.72;;;;;;;26.06;35.14;99172.91;5127190;28;20230;-69
2022/07/21 01:43:14;;;;;;;7.38;3.65;;;;;;;25.49;34.81;99109.22;5128459;28;20096;-69
2022/07/21 01:45:41;;;;;;;4.72;3.40;;;;;;;26.02;35.40;99190.59;5127866;28;20052;-69
2022/07/21 01:48:09;;;;;;;6.20;3.28;;;;;;;25.96;35.54;99188.59;5127710;28;20101;-69
2022/07/21 01:50:36;;;;;;;5.57;3.08;;;;;;;25.74;35.87;99168.66;5127707;28;20104;-69
2022/07/21 01:53:03;;;;;;;5.68;3.20;;;;;;;25.35;35.84;99098.34;5127351;28;20063;-68
2022/07/21 01:55:33;;;;;;;7.45;3.88;;;;;;;25.87;36.05;99183.25;5127389;28;20052;-67
2022/07/21 01:58:01;;;;;;;7.72;3.97;;;;;;;25.91;36.21;99187.28;5127275;28;20052;-69
2022/07/21 02:00:28;;;;;;;6.25;4.20;;;;;;;25.83;36.49;99183.81;5127123;28;20055;-68
2022/07/21 02:02:55;;;;;;;14.80;11.15;;;;;;;25.80;36.22;99186.91;5127077;28;20327;-68
2022/07/21 02:05:23;;;;;;;10.18;6.97;;;;;;;25.63;36.27;99161.81;5126953;28;20059;-68
2022/07/21 02:07:50;;;;;;;8.07;6.05;;;;;;;25.73;36.69;99172.38;5127210;28;20059;-67
2022/07/21 02:10:17;;;;;;;10.82;5.05;;;;;;;25.56;36.47;99160.88;5127243;28;20055;-68
2022/07/21 02:12:46;;;;;;;7.88;4.30;;;;;;;25.62;37.08;99175.56;5126817;28;20055;-67
2022/07/21 02:15:13;;;;;;;5.20;3.45;;;;;;;25.59;36.69;99183.03;5126651;28;20056;-68
2022/07/21 19:12:29;;;;;;;426.60;70.55;;;;;;;28.68;41.87;99145.44;5165020;27;20115;-68
2022/07/21 19:14:57;;;;;;;15.60;8.27;;;;;;;28.64;43.32;99133.25;5163921;27;20051;-68
2022/07/21 19:17:24;;;;;;;7.10;6.13;;;;;;;28.61;43.86;99121.94;5164098;27;20039;-68
2022/07/21 19:19:51;;;;;;;13.80;7.18;;;;;;;28.62;44.06;99146.25;5164061;27;20051;-68
2022/07/21 19:22:18;;;;;;;11.70;7.90;;;;;;;28.60;44.04;99151.06;5163988;27;20050;-69
2022/07/21 19:24:46;;;;;;;8.48;6.60;;;;;;;28.65;44.48;99156.75;5163648;27;20050;-69
2022/07/21 19:27:13;;;;;;;9.32;6.43;;;;;;;28.51;44.91;99130.50;5145745;27;20054;-69
2022/07/21 19:29:42;;;;;;;7.53;6.75;;;;;;;28.62;44.72;99148.97;5163671;27;20215;-70
2022/07/21 19:32:09;;;;;;;8.77;7.53;;;;;;;28.61;44.66;99154.66;5163526;27;20062;-70
2022/07/21 19:34:37;;;;;;;13.32;8.43;;;;;;;28.64;44.48;99157.81;5163104;27;20055;-71
2022/07/21 19:37:04;;;;;;;7.60;6.38;;;;;;;28.60;44.60;99153.81;5163546;27;20047;-70
2022/07/21 19:39:32;;;;;;;8.35;7.35;;;;;;;28.54;45.02;99146.44;5163672;27;20061;-70
2022/07/21 19:41:59;;;;;;;8.38;7.65;;;;;;;28.57;44.87;99153.38;5163223;27;20219;-70
2022/07/21 19:44:27;;;;;;;18.25;14.80;;;;;;;28.62;44.52;99164.50;5163329;27;20096;-69
2022/07/21 19:46:56;;;;;;;12.57;11.27;;;;;;;28.68;44.75;99147.31;5163155;27;20062;-70
2022/07/21 19:49:23;;;;;;;8.52;7.65;;;;;;;28.61;44.98;99151.91;5163429;27;20051;-71
2022/07/21 19:51:51;;;;;;;8.23;7.20;;;;;;;28.64;44.89;99152.34;5145226;27;20050;-70
2022/07/21 19:54:19;;;;;;;8.05;6.93;;;;;;;28.68;44.61;99163.69;5163152;27;20047;-70
2022/07/21 19:56:46;;;;;;;7.60;6.90;;;;;;;28.63;45.06;99167.03;5163343;27;20035;-69
2022/07/21 19:59:15;;;;;;;7.90;7.10;;;;;;;28.62;44.79;99167.22;5162816;27;20051;-71
2022/07/21 20:01:43;;;;;;;10.05;8.00;;;;;;;28.32;45.51;99145.72;5145222;27;20043;-70
2022/07/21 20:04:11;;;;;;;6.75;6.05;;;;;;;28.51;45.17;99167.81;5161269;27;20055;-70
2022/07/21 20:06:39;;;;;;;14.10;8.02;;;;;;;28.46;45.42;99168.44;5162916;27;20059;-70
2022/07/21 20:09:06;;;;;;;7.20;6.35;;;;;;;28.39;45.39;99148.47;5162607;27;20076;-70
2022/07/21 20:11:34;;;;;;;7.18;6.35;;;;;;;28.47;45.23;99175.56;5162735;27;20046;-69
2022/07/21 20:14:02;;;;;;;9.00;6.95;;;;;;;28.34;45.50;99154.53;5162482;27;20055;-68
2022/07/21 20:16:29;;;;;;;9.00;8.15;;;;;;;28.29;45.47;99164.34;5162821;27;20042;-68
2022/07/21 20:18:56;;;;;;;7.47;6.68;;;;;;;28.39;45.30;99194.78;5163732;27;20059;-68
2022/07/21 20:21:25;;;;;;;9.60;6.65;;;;;;;28.17;46.26;99165.97;5144331;27;20314;-68
2022/07/21 20:23:52;;;;;;;8.25;6.13;;;;;;;28.22;46.25;99191.56;5148721;27;20248;-69
2022/07/21 20:26:19;;;;;;;7.30;6.47;;;;;;;28.08;46.19;99168.88;5148667;27;20315;-69
2022/07/21 20:28:47;;;;;;;6.50;5.68;;;;;;;28.03;46.32;99203.19;5148784;27;20062;-70
2022/07/21 20:31:14;;;;;;;7.65;6.05;;;;;;;28.04;46.40;99207.59;5148511;27;20047;-70
2022/07/21 20:33:41;;;;;;;8.30;6.75;;;;;;;28.00;45.82;99204.44;5149041;27;20081;-69
2022/07/21 20:36:09;;;;;;;7.18;6.55;;;;;;;27.92;46.51;99210.03;5148724;27;20051;-69
2022/07/21 20:38:37;;;;;;;6.85;6.15;;;;;;;27.97;45.67;99212.16;5149155;27;20050;-69
2022/07/21 20:41:04;;;;;;;7.40;6.32;;;;;;;27.94;46.14;99207.13;5148088;27;20063;-69
2022/07/21 20:43:32;;;;;;;6.72;5.82;;;;;;;27.88;45.61;99226.97;5148498;27;20229;-69
2022/07/21 20:45:59;;;;;;;6.57;5.97;;;;;;;27.56;45.62;99201.13;5148723;27;20039;-70
2022/07/21 20:48:26;;;;;;;6.15;5.55;;;;;;;27.58;45.39;99194.44;5148611;27;20103;-69
2022/07/21 20:50:53;;;;;;;6.45;5.78;;;;;;;27.42;45.64;99186.56;5148416;27;20115;-69
2022/07/21 20:53:20;;;;;;;10.13;6.20;;;;;;;27.71;45.13;99221.81;5148170;27;20055;-70
2022/07/21 20:55:49;;;;;;;7.63;6.35;;;;;;;27.02;45.33;99114.63;5148608;27;20059;-70
2022/07/21 20:58:16;;;;;;;6.30;5.70;;;;;;;27.46;45.52;99220.53;5148234;27;20063;-69
2022/07/21 21:00:43;;;;;;;6.90;6.10;;;;;;;27.36;45.33;99217.28;5148472;27;20119;-68
2022/07/21 21:03:10;;;;;;;6.25;5.70;;;;;;;27.31;45.34;99211.59;5148138;27;20310;-69
2022/07/21 21:05:38;;;;;;;7.03;4.93;;;;;;;27.41;45.38;99234.72;5147800;27;20117;-69
2022/07/21 21:08:05;;;;;;;9.40;6.43;;;;;;;27.43;45.29;99245.41;5148019;27;20055;-69
2022/07/21 21:10:33;;;;;;;17.17;14.02;;;;;;;27.31;45.86;99245.09;5147799;27;20318;-71
2022/07/21 21:13:01;;;;;;;14.45;10.75;;;;;;;27.33;45.79;99255.78;5148064;27;20055;-71
2022/07/21 21:15:29;;;;;;;11.98;10.07;;;;;;;26.94;45.66;99204.50;5147978;27;20180;-70
2022/07/21 21:17:56;;;;;;;7.43;6.72;;;;;;;27.27;45.92;99262.84;5148089;27;20050;-70
2022/07/21 21:20:23;;;;;;;8.02;6.78;;;;;;;27.24;46.04;99259.66;5147747;27;20311;-70
2022/07/21 21:22:50;;;;;;;6.80;6.10;;;;;;;26.98;45.91;99227.56;5147548;27;20062;-69
2022/07/21 21:25:18;;;;;;;7.22;6.25;;;;;;;27.19;46.44;99250.16;5147470;27;20112;-69
2022/07/21 21:27:45;;;;;;;7.22;5.75;;;;;;;27.23;45.89;99264.25;5147480;27;20119;-70
2022/07/21 21:30:14;;;;;;;7.30;6.15;;;;;;;27.25;46.26;99266.78;5147526;27;20063;-68
2022/07/21 21:32:41;;;;;;;6.55;5.88;;;;;;;27.10;46.11;99245.88;5147512;27;20051;-70
2022/07/21 21:35:10;;;;;;;6.78;5.88;;;;;;;27.07;46.57;99242.72;5146178;27;20055;-70
2022/07/21 21:37:39;;;;;;;5.95;5.35;;;;;;;26.94;46.31;99231.69;5147545;27;20055;-69
2022/07/21 21:40:09;;;;;;;8.13;5.07;;;;;;;27.02;47.21;99243.28;5147511;27;20144;-69
2022/07/21 21:42:36;;;;;;;6.70;6.10;;;;;;;27.15;46.82;99267.91;5147207;27;20047;-70
2022/07/21 21:45:05;;;;;;;6.80;6.00;;;;;;;27.23;46.02;99271.59;5129274;27;20108;-70
2022/07/21 21:47:34;;;;;;;7.25;6.13;;;;;;;26.94;46.71;99257.00;5147246;27;20221;-70
2022/07/21 21:50:01;;;;;;;10.32;7.80;;;;;;;26.63;46.42;99212.94;5147452;27;20043;-69
2022/07/21 21:52:28;;;;;;;9.80;6.80;;;;;;;26.99;47.08;99284.47;5147048;27;20235;-69
2022/07/21 21:54:56;;;;;;;14.10;10.43;;;;;;;26.90;47.08;99282.91;5147191;27;20051;-70
2022/07/21 21:57:23;;;;;;;16.10;13.45;;;;;;;26.91;47.21;99283.75;5146783;27;20078;-70
2022/07/21 21:59:51;;;;;;;9.60;7.75;;;;;;;26.98;46.72;99293.66;5146870;27;20077;-70
2022/07/21 22:02:18;;;;;;;8.32;7.45;;;;;;;26.55;46.70;99233.72;5146820;27;20333;-69
2022/07/21 22:04:47;;;;;;;8.30;7.03;;;;;;;26.52;46.96;99238.69;5146840;27;20051;-70
2022/07/21 22:07:14;;;;;;;9.38;8.18;;;;;;;26.85;47.07;99294.34;5146812;27;20360;-68
2022/07/21 22:09:41;;;;;;;10.38;8.85;;;;;;;26.80;47.37;99280.47;5146576;27;20112;-69
2022/07/21 22:12:09;;;;;;;8.35;7.32;;;;;;;26.88;47.24;99279.53;5146043;27;20059;-69
2022/07/21 22:14:36;;;;;;;10.30;9.30;;;;;;;26.92;47.11;99285.44;5146605;27;20120;-70
2022/07/21 22:17:03;;;;;;;10.57;9.48;;;;;;;26.86;47.28;99287.03;5146285;27;20108;-69
2022/07/21 22:19:30;;;;;;;10.48;9.48;;;;;;;26.88;47.03;99278.69;5145886;27;20104;-71
2022/07/21 22:21:59;;;;;;;9.30;7.82;;;;;;;26.94;47.42;99280.66;5146413;27;20055;-69
2022/07/21 22:24:26;;;;;;;8.85;6.63;;;;;;;26.90;47.09;99290.22;5146147;27;20071;-69
2022/07/21 22:26:53;;;;;;;8.80;6.57;;;;;;;26.93;47.32;99281.69;5146029;27;20055;-69
2022/07/21 22:29:20;;;;;;;9.73;7.50;;;;;;;26.89;47.71;99283.94;5146460;27;20051;-69
2022/07/21 22:31:48;;;;;;;8.52;7.60;;;;;;;26.86;47.51;99292.47;5146305;27;20059;-68
2022/07/21 22:34:15;;;;;;;10.40;7.53;;;;;;;26.92;47.63;99282.72;5145925;27;20058;-69
2022/07/21 22:36:42;;;;;;;9.18;7.45;;;;;;;26.95;47.55;99277.72;5146098;27;20076;-68
2022/07/21 22:39:12;;;;;;;8.10;6.95;;;;;;;26.93;47.50;99284.41;5146306;27;20055;-68
2022/07/21 22:41:39;;;;;;;7.15;6.43;;;;;;;26.97;47.08;99281.09;5145720;27;20245;-69
2022/07/21 22:44:07;;;;;;;8.32;6.65;;;;;;;26.92;47.36;99294.44;5145744;27;20264;-68
2022/07/21 22:46:34;;;;;;;7.85;6.47;;;;;;;27.01;47.16;99287.00;5145981;27;20123;-68
2022/07/21 22:49:01;;;;;;;8.45;6.50;;;;;;;26.96;47.56;99293.00;5146041;27;20080;-68
2022/07/21 22:51:28;;;;;;;7.50;6.80;;;;;;;26.97;47.54;99288.41;5145979;27;20245;-68
2022/07/21 22:53:55;;;;;;;7.32;5.97;;;;;;;26.95;47.93;99291.34;5145485;27;20059;-68
2022/07/21 22:56:24;;;;;;;8.38;7.10;;;;;;;26.93;48.13;99298.84;5146000;27;20199;-68
2022/07/21 22:58:52;;;;;;;9.38;8.48;;;;;;;26.89;47.80;99330.16;5145704;27;20375;-68
2022/07/21 23:01:19;;;;;;;12.45;10.50;;;;;;;26.93;47.99;99298.84;5146213;27;20092;-69
2022/07/21 23:03:46;;;;;;;12.57;8.88;;;;;;;26.40;47.54;99224.75;5127653;28;20065;-69
2022/07/21 23:06:13;;;;;;;9.63;8.63;;;;;;;26.84;48.23;99308.13;5145468;27;20059;-69
2022/07/21 23:08:41;;;;;;;11.50;7.63;;;;;;;26.86;47.69;99311.50;5145351;27;20104;-69
2022/07/21 23:11:08;;;;;;;8.07;7.05;;;;;;;26.86;48.07;99312.34;5145007;28;20070;-69
2022/07/21 23:13:36;;;;;;;8.13;7.00;;;;;;;26.67;48.71;99314.81;5145576;28;20057;-69
2022/07/21 23:16:04;;;;;;;9.68;8.68;;;;;;;26.81;48.59;99312.06;5145908;28;20059;-69
2022/07/21 23:18:31;;;;;;;13.13;10.80;;;;;;;23.97;48.30;98846.56;5145997;28;20095;-69
2022/07/21 23:20:58;;;;;;;22.13;19.77;;;;;;;26.70;48.33;99306.28;5145540;28;20104;-69
2022/07/21 23:23:26;;;;;;;14.40;11.70;;;;;;;26.75;48.37;99312.84;5145743;28;20051;-69
2022/07/21 23:25:53;;;;;;;13.43;9.25;;;;;;;26.73;48.53;99323.06;5145024;28;20112;-69
2022/07/21 23:28:20;;;;;;;9.70;7.47;;;;;;;26.53;49.04;99309.16;5145600;28;20100;-69
2022/07/21 23:30:49;;;;;;;7.50;6.65;;;;;;;26.57;49.33;99309.63;5145117;28;20120;-69
2022/07/21 23:33:16;;;;;;;8.15;7.30;;;;;;;26.70;48.51;99315.28;5145535;28;20107;-69
2022/07/21 23:35:43;;;;;;;8.48;7.40;;;;;;;26.67;48.60;99315.66;5145053;28;20103;-69
2022/07/21 23:38:10;;;;;;;7.47;6.75;;;;;;;26.52;48.83;99315.63;5145272;28;20104;-70
2022/07/21 23:40:37;;;;;;;13.40;11.10;;;;;;;26.61;49.00;99316.41;5145695;28;20059;-69
2022/07/21 23:43:05;;;;;;;10.82;9.57;;;;;;;26.63;48.69;99314.34;5145359;28;20051;-69
2022/07/21 23:45:32;;;;;;;9.18;7.35;;;;;;;26.66;48.61;99321.28;5145086;28;20055;-69
2022/07/21 23:48:00;;;;;;;9.00;8.13;;;;;;;26.65;48.76;99315.00;5145189;28;20103;-69
2022/07/21 23:50:28;;;;;;;7.95;7.10;;;;;;;26.10;48.73;99225.81;5145461;28;20311;-69
2022/07/21 23:52:55;;;;;;;7.90;6.35;;;;;;;26.54;49.21;99324.44;5145165;28;20054;-69
2022/07/21 23:55:22;;;;;;;8.73;6.40;;;;;;;26.59;48.68;99318.44;5145240;28;20314;-69
2022/07/21 23:57:49;;;;;;;7.45;6.60;;;;;;;26.51;49.00;99395.47;5147242;27;20299;-68
